sensor_id;sensor_type;location;lat;lon;timestamp;P1;durP1;ratioP1;P2;durP2;ratioP2
23290;SDS011;11814;44.686;10.842;2023-06-14T00:00:20;44.35;;;26.48;;
23290;SDS011;11814;44.686;10.842;2023-06-14T00:02:46;42.22;;;25.85;;
23290;SDS011;11814;44.686;10.842;2023-06-14T00:05:12;43.38;;;25.35;;
23290;SDS011;11814;44.686;10.842;2023-06-14T00:07:38;37.50;;;25.27;;
23290;SDS011;11814;44.686;10.842;2023-06-14T00:10:09;38.10;;;25.08;;
23290;SDS011;11814;44.686;10.842;2023-06-14T00:12:36;37.70;;;25.30;;
23290;SDS011;11814;44.686;10.842;2023-06-14T00:15:02;43.65;;;26.42;;
23290;SDS011;11814;44.686;10.842;2023-06-14T00:17:28;34.83;;;24.55;;
23290;SDS011;11814;44.686;10.842;2023-06-14T00:19:57;36.20;;;23.10;;
23290;SDS011;11814;44.686;10.842;2023-06-14T00:22:24;36.00;;;22.55;;
23290;SDS011;11814;44.686;10.842;2023-06-14T00:24:50;33.67;;;22.02;;
23290;SDS011;11814;44.686;10.842;2023-06-14T00:27:17;29.83;;;17.90;;
23290;SDS011;11814;44.686;10.842;2023-06-14T00:29:42;24.48;;;15.60;;
23290;SDS011;11814;44.686;10.842;2023-06-14T00:32:08;27.75;;;18.55;;
23290;SDS011;11814;44.686;10.842;2023-06-14T00:34:34;22.42;;;14.95;;
23290;SDS011;11814;44.686;10.842;2023-06-14T00:37:00;29.38;;;18.98;;
23290;SDS011;11814;44.686;10.842;2023-06-14T00:39:26;35.92;;;20.88;;
23290;SDS011;11814;44.686;10.842;2023-06-14T00:41:51;34.72;;;20.50;;
23290;SDS011;11814;44.686;10.842;2023-06-14T00:44:17;39.15;;;21.63;;
23290;SDS011;11814;44.686;10.842;2023-06-14T00:46:46;42.17;;;21.60;;
23290;SDS011;11814;44.686;10.842;2023-06-14T00:49:15;38.10;;;22.48;;
23290;SDS011;11814;44.686;10.842;2023-06-14T00:51:43;41.65;;;24.38;;
23290;SDS011;11814;44.686;10.842;2023-06-14T00:54:09;40.25;;;22.85;;
23290;SDS011;11814;44.686;10.842;2023-06-14T00:56:35;44.92;;;25.38;;
23290;SDS011;11814;44.686;10.842;2023-06-14T00:59:02;44.97;;;25.52;;
23290;SDS011;11814;44.686;10.842;2023-06-14T01:01:28;45.45;;;28.52;;
23290;SDS011;11814;44.686;10.842;2023-06-14T01:03:58;47.35;;;28.00;;
23290;SDS011;11814;44.686;10.842;2023-06-14T01:09:20;42.65;;;26.55;;
23290;SDS011;11814;44.686;10.842;2023-06-14T01:12:01;39.35;;;26.13;;
23290;SDS011;11814;44.686;10.842;2023-06-14T01:14:36;42.20;;;24.02;;
23290;SDS011;11814;44.686;10.842;2023-06-14T01:17:03;45.58;;;24.38;;
23290;SDS011;11814;44.686;10.842;2023-06-14T01:19:30;40.58;;;23.10;;
23290;SDS011;11814;44.686;10.842;2023-06-14T01:21:59;32.80;;;19.88;;
23290;SDS011;11814;44.686;10.842;2023-06-14T01:24:27;33.58;;;22.40;;
23290;SDS011;11814;44.686;10.842;2023-06-14T01:26:56;39.00;;;23.52;;
23290;SDS011;11814;44.686;10.842;2023-06-14T01:29:23;38.05;;;23.92;;
23290;SDS011;11814;44.686;10.842;2023-06-14T01:31:50;32.05;;;21.67;;
23290;SDS011;11814;44.686;10.842;2023-06-14T01:34:16;34.47;;;23.95;;
23290;SDS011;11814;44.686;10.842;2023-06-14T01:36:43;44.53;;;27.25;;
23290;SDS011;11814;44.686;10.842;2023-06-14T01:39:14;43.22;;;28.35;;
23290;SDS011;11814;44.686;10.842;2023-06-14T01:41:40;42.13;;;25.83;;
23290;SDS011;11814;44.686;10.842;2023-06-14T01:44:07;47.92;;;27.83;;
23290;SDS011;11814;44.686;10.842;2023-06-14T01:46:34;47.08;;;28.13;;
23290;SDS011;11814;44.686;10.842;2023-06-14T01:49:01;43.45;;;26.55;;
23290;SDS011;11814;44.686;10.842;2023-06-14T01:51:27;41.03;;;25.02;;
23290;SDS011;11814;44.686;10.842;2023-06-14T01:53:52;37.30;;;23.40;;
23290;SDS011;11814;44.686;10.842;2023-06-14T01:56:18;34.22;;;22.15;;
23290;SDS011;11814;44.686;10.842;2023-06-14T01:58:45;34.75;;;20.83;;
23290;SDS011;11814;44.686;10.842;2023-06-14T02:01:10;33.78;;;20.40;;
23290;SDS011;11814;44.686;10.842;2023-06-14T02:03:37;29.08;;;18.67;;
23290;SDS011;11814;44.686;10.842;2023-06-14T02:06:03;24.25;;;16.90;;
23290;SDS011;11814;44.686;10.842;2023-06-14T02:08:29;25.58;;;14.98;;
23290;SDS011;11814;44.686;10.842;2023-06-14T02:10:55;21.45;;;13.23;;
23290;SDS011;11814;44.686;10.842;2023-06-14T02:13:21;21.13;;;13.13;;
23290;SDS011;11814;44.686;10.842;2023-06-14T02:15:47;15.88;;;10.00;;
23290;SDS011;11814;44.686;10.842;2023-06-14T02:18:16;20.83;;;11.13;;
23290;SDS011;11814;44.686;10.842;2023-06-14T02:20:42;19.23;;;11.63;;
23290;SDS011;11814;44.686;10.842;2023-06-14T02:23:07;18.67;;;11.98;;
23290;SDS011;11814;44.686;10.842;2023-06-14T02:25:33;19.50;;;11.25;;
23290;SDS011;11814;44.686;10.842;2023-06-14T02:27:59;21.63;;;12.80;;
23290;SDS011;11814;44.686;10.842;2023-06-14T02:30:25;24.90;;;14.23;;
23290;SDS011;11814;44.686;10.842;2023-06-14T02:32:51;26.45;;;13.55;;
23290;SDS011;11814;44.686;10.842;2023-06-14T02:35:18;23.90;;;14.13;;
23290;SDS011;11814;44.686;10.842;2023-06-14T02:37:45;17.52;;;12.07;;
23290;SDS011;11814;44.686;10.842;2023-06-14T02:40:11;17.02;;;11.23;;
23290;SDS011;11814;44.686;10.842;2023-06-14T02:42:37;20.27;;;11.73;;
23290;SDS011;11814;44.686;10.842;2023-06-14T02:45:03;17.77;;;11.55;;
23290;SDS011;11814;44.686;10.842;2023-06-14T02:47:29;15.18;;;11.45;;
23290;SDS011;11814;44.686;10.842;2023-06-14T02:49:55;19.70;;;12.43;;
23290;SDS011;11814;44.686;10.842;2023-06-14T02:52:20;19.58;;;12.60;;
23290;SDS011;11814;44.686;10.842;2023-06-14T02:54:47;17.90;;;12.23;;
23290;SDS011;11814;44.686;10.842;2023-06-14T02:57:12;17.75;;;12.73;;
23290;SDS011;11814;44.686;10.842;2023-06-14T02:59:38;19.30;;;13.80;;
23290;SDS011;11814;44.686;10.842;2023-06-14T03:02:04;25.05;;;13.02;;
23290;SDS011;11814;44.686;10.842;2023-06-14T03:04:30;24.00;;;12.13;;
23290;SDS011;11814;44.686;10.842;2023-06-14T03:07:02;22.10;;;11.30;;
23290;SDS011;11814;44.686;10.842;2023-06-14T03:09:37;19.42;;;10.93;;
23290;SDS011;11814;44.686;10.842;2023-06-14T03:12:04;19.45;;;11.07;;
23290;SDS011;11814;44.686;10.842;2023-06-14T03:14:32;20.00;;;13.30;;
23290;SDS011;11814;44.686;10.842;2023-06-14T03:16:58;22.55;;;13.70;;
23290;SDS011;11814;44.686;10.842;2023-06-14T03:19:24;20.33;;;13.80;;
23290;SDS011;11814;44.686;10.842;2023-06-14T03:21:51;20.63;;;13.63;;
23290;SDS011;11814;44.686;10.842;2023-06-14T03:24:18;24.50;;;14.35;;
23290;SDS011;11814;44.686;10.842;2023-06-14T03:26:45;19.15;;;13.57;;
23290;SDS011;11814;44.686;10.842;2023-06-14T03:29:11;18.65;;;12.50;;
23290;SDS011;11814;44.686;10.842;2023-06-14T03:31:41;13.55;;;10.32;;
23290;SDS011;11814;44.686;10.842;2023-06-14T03:34:25;14.68;;;11.25;;
23290;SDS011;11814;44.686;10.842;2023-06-14T03:36:51;19.20;;;12.93;;
23290;SDS011;11814;44.686;10.842;2023-06-14T03:39:17;15.35;;;9.52;;
23290;SDS011;11814;44.686;10.842;2023-06-14T03:41:44;16.10;;;10.57;;
23290;SDS011;11814;44.686;10.842;2023-06-14T03:44:10;13.73;;;9.52;;
23290;SDS011;11814;44.686;10.842;2023-06-14T03:46:35;17.17;;;11.32;;
23290;SDS011;11814;44.686;10.842;2023-06-14T03:49:01;16.25;;;10.23;;
23290;SDS011;11814;44.686;10.842;2023-06-14T03:51:28;19.35;;;10.00;;
23290;SDS011;11814;44.686;10.842;2023-06-14T03:53:54;15.63;;;10.30;;
23290;SDS011;11814;44.686;10.842;2023-06-14T03:56:21;12.10;;;10.63;;
23290;SDS011;11814;44.686;10.842;2023-06-14T03:58:46;14.95;;;10.07;;
23290;SDS011;11814;44.686;10.842;2023-06-14T04:01:12;14.40;;;10.38;;
23290;SDS011;11814;44.686;10.842;2023-06-14T04:03:38;15.30;;;10.40;;
23290;SDS011;11814;44.686;10.842;2023-06-14T04:06:05;16.92;;;9.70;;
23290;SDS011;11814;44.686;10.842;2023-06-14T04:08:31;17.83;;;11.10;;
23290;SDS011;11814;44.686;10.842;2023-06-14T04:10:57;11.75;;;8.00;;
23290;SDS011;11814;44.686;10.842;2023-06-14T04:13:23;15.70;;;7.75;;
23290;SDS011;11814;44.686;10.842;2023-06-14T04:15:48;14.85;;;8.70;;
23290;SDS011;11814;44.686;10.842;2023-06-14T04:18:14;16.80;;;8.23;;
23290;SDS011;11814;44.686;10.842;2023-06-14T04:20:40;14.88;;;8.55;;
23290;SDS011;11814;44.686;10.842;2023-06-14T04:23:15;10.65;;;7.47;;
23290;SDS011;11814;44.686;10.842;2023-06-14T04:25:46;10.95;;;6.70;;
23290;SDS011;11814;44.686;10.842;2023-06-14T04:28:12;12.48;;;7.32;;
23290;SDS011;11814;44.686;10.842;2023-06-14T04:30:42;12.20;;;7.65;;
23290;SDS011;11814;44.686;10.842;2023-06-14T04:33:09;10.55;;;7.55;;
23290;SDS011;11814;44.686;10.842;2023-06-14T04:35:35;13.63;;;6.68;;
23290;SDS011;11814;44.686;10.842;2023-06-14T04:38:02;9.55;;;6.35;;
23290;SDS011;11814;44.686;10.842;2023-06-14T04:40:30;12.70;;;5.50;;
23290;SDS011;11814;44.686;10.842;2023-06-14T04:42:56;8.02;;;5.53;;
23290;SDS011;11814;44.686;10.842;2023-06-14T04:45:22;16.58;;;5.38;;
23290;SDS011;11814;44.686;10.842;2023-06-14T04:47:49;12.93;;;5.40;;
23290;SDS011;11814;44.686;10.842;2023-06-14T04:50:16;12.05;;;5.60;;
23290;SDS011;11814;44.686;10.842;2023-06-14T04:52:43;12.00;;;5.40;;
23290;SDS011;11814;44.686;10.842;2023-06-14T04:55:08;10.82;;;5.20;;
23290;SDS011;11814;44.686;10.842;2023-06-14T04:57:35;8.77;;;4.95;;
23290;SDS011;11814;44.686;10.842;2023-06-14T05:00:00;9.07;;;5.10;;
23290;SDS011;11814;44.686;10.842;2023-06-14T05:02:29;13.07;;;5.88;;
23290;SDS011;11814;44.686;10.842;2023-06-14T05:04:55;11.60;;;4.55;;
23290;SDS011;11814;44.686;10.842;2023-06-14T05:07:22;9.13;;;4.80;;
23290;SDS011;11814;44.686;10.842;2023-06-14T05:09:49;11.70;;;5.60;;
23290;SDS011;11814;44.686;10.842;2023-06-14T05:12:14;9.23;;;4.47;;
23290;SDS011;11814;44.686;10.842;2023-06-14T05:14:43;6.05;;;4.45;;
23290;SDS011;11814;44.686;10.842;2023-06-14T05:17:09;6.78;;;5.05;;
23290;SDS011;11814;44.686;10.842;2023-06-14T05:19:35;7.93;;;5.85;;
23290;SDS011;11814;44.686;10.842;2023-06-14T05:22:01;11.13;;;6.15;;
23290;SDS011;11814;44.686;10.842;2023-06-14T05:24:28;10.48;;;4.93;;
23290;SDS011;11814;44.686;10.842;2023-06-14T05:26:55;13.60;;;6.00;;
23290;SDS011;11814;44.686;10.842;2023-06-14T05:29:21;10.60;;;5.75;;
23290;SDS011;11814;44.686;10.842;2023-06-14T05:31:47;9.10;;;6.03;;
23290;SDS011;11814;44.686;10.842;2023-06-14T05:34:13;12.98;;;6.07;;
23290;SDS011;11814;44.686;10.842;2023-06-14T05:36:39;13.82;;;6.60;;
23290;SDS011;11814;44.686;10.842;2023-06-14T05:39:05;12.75;;;7.30;;
23290;SDS011;11814;44.686;10.842;2023-06-14T05:41:31;12.48;;;7.95;;
23290;SDS011;11814;44.686;10.842;2023-06-14T05:43:57;12.82;;;7.10;;
23290;SDS011;11814;44.686;10.842;2023-06-14T05:46:25;11.05;;;8.23;;
23290;SDS011;11814;44.686;10.842;2023-06-14T05:48:54;13.45;;;7.25;;
23290;SDS011;11814;44.686;10.842;2023-06-14T05:51:20;14.57;;;8.05;;
23290;SDS011;11814;44.686;10.842;2023-06-14T05:53:47;13.88;;;9.20;;
23290;SDS011;11814;44.686;10.842;2023-06-14T05:56:14;13.65;;;9.52;;
23290;SDS011;11814;44.686;10.842;2023-06-14T05:58:40;15.15;;;8.80;;
23290;SDS011;11814;44.686;10.842;2023-06-14T06:01:06;12.18;;;9.63;;
23290;SDS011;11814;44.686;10.842;2023-06-14T06:03:32;11.32;;;9.07;;
23290;SDS011;11814;44.686;10.842;2023-06-14T06:05:58;9.93;;;7.97;;
23290;SDS011;11814;44.686;10.842;2023-06-14T06:08:24;15.20;;;8.05;;
23290;SDS011;11814;44.686;10.842;2023-06-14T06:10:51;13.25;;;9.48;;
23290;SDS011;11814;44.686;10.842;2023-06-14T06:13:16;12.35;;;9.25;;
23290;SDS011;11814;44.686;10.842;2023-06-14T06:15:42;13.38;;;6.88;;
23290;SDS011;11814;44.686;10.842;2023-06-14T06:18:08;11.95;;;6.50;;
23290;SDS011;11814;44.686;10.842;2023-06-14T06:20:33;11.95;;;6.93;;
23290;SDS011;11814;44.686;10.842;2023-06-14T06:22:59;14.13;;;6.47;;
23290;SDS011;11814;44.686;10.842;2023-06-14T06:25:26;9.23;;;5.63;;
23290;SDS011;11814;44.686;10.842;2023-06-14T06:27:52;9.80;;;6.75;;
23290;SDS011;11814;44.686;10.842;2023-06-14T06:30:19;8.27;;;5.65;;
23290;SDS011;11814;44.686;10.842;2023-06-14T06:32:46;8.68;;;5.13;;
23290;SDS011;11814;44.686;10.842;2023-06-14T06:35:12;9.50;;;4.97;;
23290;SDS011;11814;44.686;10.842;2023-06-14T06:37:38;7.28;;;5.32;;
23290;SDS011;11814;44.686;10.842;2023-06-14T06:40:04;8.77;;;5.40;;
23290;SDS011;11814;44.686;10.842;2023-06-14T06:42:31;10.18;;;6.20;;
23290;SDS011;11814;44.686;10.842;2023-06-14T06:44:57;11.32;;;7.05;;
23290;SDS011;11814;44.686;10.842;2023-06-14T06:47:23;11.85;;;6.32;;
23290;SDS011;11814;44.686;10.842;2023-06-14T06:49:50;11.98;;;7.50;;
23290;SDS011;11814;44.686;10.842;2023-06-14T06:52:15;12.30;;;7.70;;
23290;SDS011;11814;44.686;10.842;2023-06-14T06:54:41;17.52;;;11.15;;
23290;SDS011;11814;44.686;10.842;2023-06-14T06:57:07;13.65;;;10.07;;
23290;SDS011;11814;44.686;10.842;2023-06-14T06:59:33;16.55;;;10.73;;
23290;SDS011;11814;44.686;10.842;2023-06-14T07:01:59;17.75;;;13.05;;
23290;SDS011;11814;44.686;10.842;2023-06-14T07:04:25;21.77;;;13.70;;
23290;SDS011;11814;44.686;10.842;2023-06-14T07:06:51;16.95;;;13.38;;
23290;SDS011;11814;44.686;10.842;2023-06-14T07:09:17;19.52;;;14.90;;
23290;SDS011;11814;44.686;10.842;2023-06-14T07:11:44;20.75;;;13.90;;
23290;SDS011;11814;44.686;10.842;2023-06-14T07:14:10;20.27;;;14.32;;
23290;SDS011;11814;44.686;10.842;2023-06-14T07:16:36;20.33;;;13.68;;
23290;SDS011;11814;44.686;10.842;2023-06-14T07:19:03;20.85;;;13.23;;
23290;SDS011;11814;44.686;10.842;2023-06-14T07:21:29;20.25;;;14.07;;
23290;SDS011;11814;44.686;10.842;2023-06-14T07:23:55;23.13;;;13.63;;
23290;SDS011;11814;44.686;10.842;2023-06-14T07:26:21;17.92;;;13.82;;
23290;SDS011;11814;44.686;10.842;2023-06-14T07:28:47;20.98;;;14.02;;
23290;SDS011;11814;44.686;10.842;2023-06-14T07:31:14;21.77;;;15.05;;
23290;SDS011;11814;44.686;10.842;2023-06-14T07:33:40;20.33;;;14.80;;
23290;SDS011;11814;44.686;10.842;2023-06-14T07:36:07;23.13;;;14.95;;
23290;SDS011;11814;44.686;10.842;2023-06-14T07:38:33;27.08;;;15.75;;
23290;SDS011;11814;44.686;10.842;2023-06-14T07:40:59;18.48;;;14.02;;
23290;SDS011;11814;44.686;10.842;2023-06-14T07:43:25;25.70;;;15.10;;
23290;SDS011;11814;44.686;10.842;2023-06-14T07:45:51;20.77;;;14.90;;
23290;SDS011;11814;44.686;10.842;2023-06-14T07:48:17;17.95;;;13.48;;
23290;SDS011;11814;44.686;10.842;2023-06-14T07:50:43;19.38;;;14.88;;
23290;SDS011;11814;44.686;10.842;2023-06-14T07:53:09;16.75;;;13.75;;
23290;SDS011;11814;44.686;10.842;2023-06-14T07:55:35;21.00;;;14.48;;
23290;SDS011;11814;44.686;10.842;2023-06-14T07:58:05;21.48;;;15.30;;
23290;SDS011;11814;44.686;10.842;2023-06-14T08:00:31;25.90;;;15.00;;
23290;SDS011;11814;44.686;10.842;2023-06-14T08:02:57;17.38;;;14.57;;
23290;SDS011;11814;44.686;10.842;2023-06-14T08:05:26;18.77;;;14.85;;
23290;SDS011;11814;44.686;10.842;2023-06-14T08:07:53;20.05;;;14.65;;
23290;SDS011;11814;44.686;10.842;2023-06-14T08:10:19;22.17;;;15.02;;
23290;SDS011;11814;44.686;10.842;2023-06-14T08:12:45;21.40;;;15.65;;
23290;SDS011;11814;44.686;10.842;2023-06-14T08:15:11;20.95;;;15.05;;
23290;SDS011;11814;44.686;10.842;2023-06-14T08:17:37;18.80;;;14.90;;
23290;SDS011;11814;44.686;10.842;2023-06-14T08:20:03;20.20;;;15.80;;
23290;SDS011;11814;44.686;10.842;2023-06-14T08:22:30;18.73;;;15.07;;
23290;SDS011;11814;44.686;10.842;2023-06-14T08:24:59;20.25;;;15.15;;
23290;SDS011;11814;44.686;10.842;2023-06-14T08:27:26;18.90;;;14.85;;
23290;SDS011;11814;44.686;10.842;2023-06-14T08:29:52;17.10;;;11.55;;
23290;SDS011;11814;44.686;10.842;2023-06-14T08:32:17;15.50;;;11.48;;
23290;SDS011;11814;44.686;10.842;2023-06-14T08:34:43;16.23;;;11.50;;
23290;SDS011;11814;44.686;10.842;2023-06-14T08:37:09;16.48;;;12.20;;
23290;SDS011;11814;44.686;10.842;2023-06-14T08:39:35;14.88;;;12.63;;
23290;SDS011;11814;44.686;10.842;2023-06-14T08:42:02;17.25;;;14.02;;
23290;SDS011;11814;44.686;10.842;2023-06-14T08:44:29;21.77;;;13.23;;
23290;SDS011;11814;44.686;10.842;2023-06-14T08:46:58;16.27;;;13.02;;
23290;SDS011;11814;44.686;10.842;2023-06-14T08:49:25;17.55;;;12.52;;
23290;SDS011;11814;44.686;10.842;2023-06-14T08:51:58;15.48;;;12.32;;
23290;SDS011;11814;44.686;10.842;2023-06-14T08:54:26;16.73;;;14.07;;
23290;SDS011;11814;44.686;10.842;2023-06-14T08:56:55;17.05;;;12.73;;
23290;SDS011;11814;44.686;10.842;2023-06-14T08:59:31;15.95;;;11.98;;
23290;SDS011;11814;44.686;10.842;2023-06-14T09:02:04;15.98;;;12.13;;
23290;SDS011;11814;44.686;10.842;2023-06-14T09:04:31;15.68;;;11.93;;
23290;SDS011;11814;44.686;10.842;2023-06-14T09:06:58;16.58;;;12.80;;
23290;SDS011;11814;44.686;10.842;2023-06-14T09:09:24;13.18;;;11.55;;
23290;SDS011;11814;44.686;10.842;2023-06-14T09:11:50;15.20;;;10.82;;
23290;SDS011;11814;44.686;10.842;2023-06-14T09:14:18;13.82;;;11.35;;
23290;SDS011;11814;44.686;10.842;2023-06-14T09:16:44;16.33;;;12.40;;
23290;SDS011;11814;44.686;10.842;2023-06-14T09:19:13;15.90;;;11.23;;
23290;SDS011;11814;44.686;10.842;2023-06-14T09:21:49;13.05;;;10.65;;
23290;SDS011;11814;44.686;10.842;2023-06-14T09:24:15;17.17;;;12.05;;
23290;SDS011;11814;44.686;10.842;2023-06-14T09:26:41;12.32;;;9.55;;
23290;SDS011;11814;44.686;10.842;2023-06-14T09:29:06;14.43;;;11.30;;
23290;SDS011;11814;44.686;10.842;2023-06-14T09:31:34;14.60;;;11.13;;
23290;SDS011;11814;44.686;10.842;2023-06-14T09:34:01;16.60;;;9.88;;
23290;SDS011;11814;44.686;10.842;2023-06-14T09:36:27;15.40;;;12.48;;
23290;SDS011;11814;44.686;10.842;2023-06-14T09:38:56;15.27;;;11.45;;
23290;SDS011;11814;44.686;10.842;2023-06-14T09:41:36;14.82;;;11.00;;
23290;SDS011;11814;44.686;10.842;2023-06-14T09:44:04;14.50;;;11.48;;
23290;SDS011;11814;44.686;10.842;2023-06-14T09:46:31;10.30;;;9.07;;
23290;SDS011;11814;44.686;10.842;2023-06-14T09:48:57;10.82;;;8.50;;
23290;SDS011;11814;44.686;10.842;2023-06-14T09:51:24;10.07;;;8.35;;
23290;SDS011;11814;44.686;10.842;2023-06-14T09:53:51;10.18;;;7.97;;
23290;SDS011;11814;44.686;10.842;2023-06-14T09:56:25;7.95;;;7.15;;
23290;SDS011;11814;44.686;10.842;2023-06-14T09:59:08;11.68;;;9.35;;
23290;SDS011;11814;44.686;10.842;2023-06-14T10:01:35;10.77;;;8.45;;
23290;SDS011;11814;44.686;10.842;2023-06-14T10:04:13;14.30;;;9.45;;
23290;SDS011;11814;44.686;10.842;2023-06-14T10:06:41;10.65;;;6.63;;
23290;SDS011;11814;44.686;10.842;2023-06-14T10:09:10;9.85;;;8.52;;
23290;SDS011;11814;44.686;10.842;2023-06-14T10:11:36;12.50;;;7.03;;
23290;SDS011;11814;44.686;10.842;2023-06-14T10:14:08;8.13;;;7.32;;
23290;SDS011;11814;44.686;10.842;2023-06-14T10:24:18;6.68;;;4.15;;
23290;SDS011;11814;44.686;10.842;2023-06-14T10:26:52;6.20;;;5.40;;
23290;SDS011;11814;44.686;10.842;2023-06-14T10:29:19;6.45;;;5.55;;
23290;SDS011;11814;44.686;10.842;2023-06-14T10:31:49;8.88;;;5.40;;
23290;SDS011;11814;44.686;10.842;2023-06-14T10:34:25;6.57;;;5.18;;
23290;SDS011;11814;44.686;10.842;2023-06-14T10:37:02;10.00;;;6.45;;
23290;SDS011;11814;44.686;10.842;2023-06-14T10:39:29;9.98;;;7.40;;
23290;SDS011;11814;44.686;10.842;2023-06-14T10:41:56;11.63;;;8.07;;
23290;SDS011;11814;44.686;10.842;2023-06-14T10:46:55;6.72;;;5.53;;
23290;SDS011;11814;44.686;10.842;2023-06-14T10:49:42;9.52;;;6.40;;
23290;SDS011;11814;44.686;10.842;2023-06-14T10:52:13;10.60;;;7.57;;
23290;SDS011;11814;44.686;10.842;2023-06-14T10:57:49;10.00;;;6.60;;
23290;SDS011;11814;44.686;10.842;2023-06-14T11:00:17;7.97;;;7.03;;
23290;SDS011;11814;44.686;10.842;2023-06-14T11:05:51;10.40;;;7.22;;
23290;SDS011;11814;44.686;10.842;2023-06-14T11:08:30;9.18;;;7.57;;
23290;SDS011;11814;44.686;10.842;2023-06-14T11:11:08;11.10;;;8.88;;
23290;SDS011;11814;44.686;10.842;2023-06-14T11:13:38;12.65;;;9.60;;
23290;SDS011;11814;44.686;10.842;2023-06-14T11:16:11;12.07;;;8.50;;
23290;SDS011;11814;44.686;10.842;2023-06-14T11:18:41;9.00;;;7.22;;
23290;SDS011;11814;44.686;10.842;2023-06-14T11:21:07;10.25;;;8.18;;
23290;SDS011;11814;44.686;10.842;2023-06-14T11:23:36;8.70;;;7.80;;
23290;SDS011;11814;44.686;10.842;2023-06-14T11:26:02;11.52;;;8.18;;
23290;SDS011;11814;44.686;10.842;2023-06-14T11:28:38;11.40;;;7.35;;
23290;SDS011;11814;44.686;10.842;2023-06-14T11:31:05;9.68;;;6.00;;
23290;SDS011;11814;44.686;10.842;2023-06-14T11:33:31;6.95;;;4.80;;
23290;SDS011;11814;44.686;10.842;2023-06-14T11:35:57;9.63;;;5.93;;
23290;SDS011;11814;44.686;10.842;2023-06-14T11:38:25;8.57;;;6.53;;
23290;SDS011;11814;44.686;10.842;2023-06-14T11:40:51;8.07;;;5.35;;
23290;SDS011;11814;44.686;10.842;2023-06-14T11:43:17;7.75;;;6.20;;
23290;SDS011;11814;44.686;10.842;2023-06-14T11:45:43;7.82;;;5.43;;
23290;SDS011;11814;44.686;10.842;2023-06-14T11:48:13;6.57;;;3.60;;
23290;SDS011;11814;44.686;10.842;2023-06-14T11:50:39;4.22;;;3.78;;
23290;SDS011;11814;44.686;10.842;2023-06-14T11:53:04;5.70;;;3.38;;
23290;SDS011;11814;44.686;10.842;2023-06-14T11:55:36;9.70;;;4.40;;
23290;SDS011;11814;44.686;10.842;2023-06-14T11:58:05;4.85;;;4.25;;
23290;SDS011;11814;44.686;10.842;2023-06-14T12:00:32;9.50;;;5.00;;
23290;SDS011;11814;44.686;10.842;2023-06-14T12:02:57;5.97;;;4.38;;
23290;SDS011;11814;44.686;10.842;2023-06-14T12:05:24;6.82;;;4.32;;
23290;SDS011;11814;44.686;10.842;2023-06-14T12:07:57;4.15;;;3.75;;
23290;SDS011;11814;44.686;10.842;2023-06-14T12:10:28;5.68;;;3.72;;
23290;SDS011;11814;44.686;10.842;2023-06-14T12:12:58;4.93;;;2.90;;
23290;SDS011;11814;44.686;10.842;2023-06-14T12:15:24;6.20;;;3.17;;
23290;SDS011;11814;44.686;10.842;2023-06-14T12:17:53;6.10;;;3.17;;
23290;SDS011;11814;44.686;10.842;2023-06-14T12:20:19;4.75;;;3.38;;
23290;SDS011;11814;44.686;10.842;2023-06-14T12:22:50;5.72;;;3.47;;
23290;SDS011;11814;44.686;10.842;2023-06-14T12:25:31;5.15;;;3.53;;
23290;SDS011;11814;44.686;10.842;2023-06-14T12:27:59;5.82;;;3.58;;
23290;SDS011;11814;44.686;10.842;2023-06-14T12:30:33;8.50;;;3.45;;
23290;SDS011;11814;44.686;10.842;2023-06-14T12:33:01;7.30;;;3.25;;
23290;SDS011;11814;44.686;10.842;2023-06-14T12:35:27;4.60;;;3.35;;
23290;SDS011;11814;44.686;10.842;2023-06-14T12:37:53;6.53;;;3.15;;
23290;SDS011;11814;44.686;10.842;2023-06-14T12:40:19;6.05;;;3.55;;
23290;SDS011;11814;44.686;10.842;2023-06-14T12:42:45;8.13;;;3.72;;
23290;SDS011;11814;44.686;10.842;2023-06-14T12:45:13;5.03;;;3.63;;
23290;SDS011;11814;44.686;10.842;2023-06-14T12:47:39;9.75;;;3.78;;
23290;SDS011;11814;44.686;10.842;2023-06-14T12:50:05;6.85;;;3.20;;
23290;SDS011;11814;44.686;10.842;2023-06-14T12:52:31;11.75;;;3.97;;
23290;SDS011;11814;44.686;10.842;2023-06-14T12:55:01;7.18;;;4.18;;
23290;SDS011;11814;44.686;10.842;2023-06-14T12:57:30;8.10;;;4.07;;
23290;SDS011;11814;44.686;10.842;2023-06-14T12:59:56;7.53;;;3.60;;
23290;SDS011;11814;44.686;10.842;2023-06-14T13:02:21;5.03;;;3.20;;
23290;SDS011;11814;44.686;10.842;2023-06-14T13:04:49;5.22;;;3.60;;
23290;SDS011;11814;44.686;10.842;2023-06-14T13:07:15;6.80;;;3.60;;
23290;SDS011;11814;44.686;10.842;2023-06-14T13:09:41;11.27;;;3.90;;
23290;SDS011;11814;44.686;10.842;2023-06-14T13:12:11;8.70;;;3.53;;
23290;SDS011;11814;44.686;10.842;2023-06-14T13:14:37;18.00;;;3.63;;
23290;SDS011;11814;44.686;10.842;2023-06-14T13:17:05;3.55;;;3.20;;
23290;SDS011;11814;44.686;10.842;2023-06-14T13:19:33;5.78;;;3.17;;
23290;SDS011;11814;44.686;10.842;2023-06-14T13:21:58;6.00;;;3.17;;
23290;SDS011;11814;44.686;10.842;2023-06-14T13:24:24;4.97;;;2.65;;
23290;SDS011;11814;44.686;10.842;2023-06-14T13:26:50;5.55;;;2.83;;
23290;SDS011;11814;44.686;10.842;2023-06-14T13:29:16;5.45;;;2.83;;
23290;SDS011;11814;44.686;10.842;2023-06-14T13:31:42;7.05;;;2.90;;
23290;SDS011;11814;44.686;10.842;2023-06-14T13:34:07;5.60;;;3.25;;
23290;SDS011;11814;44.686;10.842;2023-06-14T13:36:33;4.13;;;3.03;;
23290;SDS011;11814;44.686;10.842;2023-06-14T13:38:59;5.30;;;3.13;;
23290;SDS011;11814;44.686;10.842;2023-06-14T13:41:26;4.60;;;2.72;;
23290;SDS011;11814;44.686;10.842;2023-06-14T13:43:57;6.68;;;3.38;;
23290;SDS011;11814;44.686;10.842;2023-06-14T13:46:23;5.93;;;3.20;;
23290;SDS011;11814;44.686;10.842;2023-06-14T13:48:49;5.60;;;3.00;;
23290;SDS011;11814;44.686;10.842;2023-06-14T13:51:15;6.20;;;2.70;;
23290;SDS011;11814;44.686;10.842;2023-06-14T13:53:43;3.85;;;2.70;;
23290;SDS011;11814;44.686;10.842;2023-06-14T13:56:10;9.10;;;2.95;;
23290;SDS011;11814;44.686;10.842;2023-06-14T13:58:37;9.35;;;3.10;;
23290;SDS011;11814;44.686;10.842;2023-06-14T14:01:03;4.10;;;2.92;;
23290;SDS011;11814;44.686;10.842;2023-06-14T14:03:29;3.97;;;2.97;;
23290;SDS011;11814;44.686;10.842;2023-06-14T14:05:55;5.07;;;2.45;;
23290;SDS011;11814;44.686;10.842;2023-06-14T14:08:21;3.08;;;2.58;;
23290;SDS011;11814;44.686;10.842;2023-06-14T14:10:47;3.63;;;2.67;;
23290;SDS011;11814;44.686;10.842;2023-06-14T14:13:12;3.53;;;2.70;;
23290;SDS011;11814;44.686;10.842;2023-06-14T14:15:39;5.00;;;2.90;;
23290;SDS011;11814;44.686;10.842;2023-06-14T14:18:05;5.13;;;2.80;;
23290;SDS011;11814;44.686;10.842;2023-06-14T14:20:30;5.35;;;2.58;;
23290;SDS011;11814;44.686;10.842;2023-06-14T14:22:56;7.95;;;3.00;;
23290;SDS011;11814;44.686;10.842;2023-06-14T14:25:22;4.30;;;2.88;;
23290;SDS011;11814;44.686;10.842;2023-06-14T14:27:48;7.00;;;2.40;;
23290;SDS011;11814;44.686;10.842;2023-06-14T14:30:14;6.03;;;2.47;;
23290;SDS011;11814;44.686;10.842;2023-06-14T14:32:41;4.07;;;2.70;;
23290;SDS011;11814;44.686;10.842;2023-06-14T14:35:08;3.13;;;2.83;;
23290;SDS011;11814;44.686;10.842;2023-06-14T14:37:34;6.70;;;2.80;;